sensor_id;sensor_type;location;lat;lon;timestamp;temperature;humidity
670;DHT22;317;48.758;9.302;2022-11-11T00:00:58;5.70;99.90
670;DHT22;317;48.758;9.302;2022-11-11T00:03:25;5.80;99.90
670;DHT22;317;48.758;9.302;2022-11-11T00:05:52;5.70;99.90
670;DHT22;317;48.758;9.302;2022-11-11T00:08:19;5.90;99.90
670;DHT22;317;48.758;9.302;2022-11-11T00:10:47;5.70;99.90
670;DHT22;317;48.758;9.302;2022-11-11T00:13:14;5.60;99.90
670;DHT22;317;48.758;9.302;2022-11-11T00:15:41;5.50;99.90
670;DHT22;317;48.758;9.302;2022-11-11T00:18:09;5.90;99.90
670;DHT22;317;48.758;9.302;2022-11-11T00:20:56;5.70;99.90
670;DHT22;317;48.758;9.302;2022-11-11T00:23:41;5.80;99.90
670;DHT22;317;48.758;9.302;2022-11-11T00:26:26;5.50;99.90
670;DHT22;317;48.758;9.302;2022-11-11T00:28:54;5.80;99.90
670;DHT22;317;48.758;9.302;2022-11-11T00:31:21;5.60;99.90
670;DHT22;317;48.758;9.302;2022-11-11T00:33:48;5.60;99.90
670;DHT22;317;48.758;9.302;2022-11-11T00:36:15;5.50;99.90
670;DHT22;317;48.758;9.302;2022-11-11T00:38:41;5.50;99.90
670;DHT22;317;48.758;9.302;2022-11-11T00:41:16;5.70;99.90
670;DHT22;317;48.758;9.302;2022-11-11T00:43:45;5.20;99.90
670;DHT22;317;48.758;9.302;2022-11-11T00:46:13;5.60;99.90
670;DHT22;317;48.758;9.302;2022-11-11T00:48:58;5.60;99.90
670;DHT22;317;48.758;9.302;2022-11-11T00:51:42;5.40;99.90
670;DHT22;317;48.758;9.302;2022-11-11T00:54:09;5.40;99.90
670;DHT22;317;48.758;9.302;2022-11-11T00:56:36;5.50;99.90
670;DHT22;317;48.758;9.302;2022-11-11T00:59:06;5.40;99.90
670;DHT22;317;48.758;9.302;2022-11-11T01:01:33;5.70;99.90
670;DHT22;317;48.758;9.302;2022-11-11T01:04:00;5.60;99.90
670;DHT22;317;48.758;9.302;2022-11-11T01:06:27;5.50;99.90
670;DHT22;317;48.758;9.302;2022-11-11T01:08:54;5.30;99.90
670;DHT22;317;48.758;9.302;2022-11-11T01:11:22;5.40;99.90
670;DHT22;317;48.758;9.302;2022-11-11T01:13:50;5.30;99.90
670;DHT22;317;48.758;9.302;2022-11-11T01:16:20;5.50;99.90
670;DHT22;317;48.758;9.302;2022-11-11T01:18:47;5.10;99.90
670;DHT22;317;48.758;9.302;2022-11-11T01:21:16;5.20;99.90
670;DHT22;317;48.758;9.302;2022-11-11T01:23:43;5.20;99.90
670;DHT22;317;48.758;9.302;2022-11-11T01:26:13;5.20;99.90
670;DHT22;317;48.758;9.302;2022-11-11T01:28:40;5.20;99.90
670;DHT22;317;48.758;9.302;2022-11-11T01:31:09;5.00;99.90
670;DHT22;317;48.758;9.302;2022-11-11T01:33:38;5.30;99.90
670;DHT22;317;48.758;9.302;2022-11-11T01:36:08;5.20;99.90
670;DHT22;317;48.758;9.302;2022-11-11T01:38:35;5.10;99.90
670;DHT22;317;48.758;9.302;2022-11-11T01:41:03;5.30;99.90
670;DHT22;317;48.758;9.302;2022-11-11T01:43:52;5.10;99.90
670;DHT22;317;48.758;9.302;2022-11-11T01:46:25;5.40;99.90
670;DHT22;317;48.758;9.302;2022-11-11T01:48:57;5.20;99.90
670;DHT22;317;48.758;9.302;2022-11-11T01:51:45;5.00;99.90
670;DHT22;317;48.758;9.302;2022-11-11T01:54:16;5.20;99.90
670;DHT22;317;48.758;9.302;2022-11-11T01:56:47;5.40;99.90
670;DHT22;317;48.758;9.302;2022-11-11T01:59:15;5.20;99.90
670;DHT22;317;48.758;9.302;2022-11-11T02:01:43;5.00;99.90
670;DHT22;317;48.758;9.302;2022-11-11T02:04:12;5.30;99.90
670;DHT22;317;48.758;9.302;2022-11-11T02:06:59;5.00;99.90
670;DHT22;317;48.758;9.302;2022-11-11T02:09:29;4.90;99.90
670;DHT22;317;48.758;9.302;2022-11-11T02:11:57;5.20;99.90
670;DHT22;317;48.758;9.302;2022-11-11T02:14:46;5.10;99.90
670;DHT22;317;48.758;9.302;2022-11-11T02:17:14;5.00;99.90
670;DHT22;317;48.758;9.302;2022-11-11T02:19:48;5.20;99.90
670;DHT22;317;48.758;9.302;2022-11-11T02:22:21;4.90;99.90
670;DHT22;317;48.758;9.302;2022-11-11T02:24:51;4.90;99.90
670;DHT22;317;48.758;9.302;2022-11-11T02:27:19;5.00;99.90
670;DHT22;317;48.758;9.302;2022-11-11T02:29:49;4.70;99.90
670;DHT22;317;48.758;9.302;2022-11-11T02:32:18;4.70;99.90
670;DHT22;317;48.758;9.302;2022-11-11T02:34:47;4.60;99.90
670;DHT22;317;48.758;9.302;2022-11-11T02:37:16;4.70;99.90
670;DHT22;317;48.758;9.302;2022-11-11T02:39:45;4.80;99.90
670;DHT22;317;48.758;9.302;2022-11-11T02:42:15;4.70;99.90
670;DHT22;317;48.758;9.302;2022-11-11T02:44:43;4.80;99.90
670;DHT22;317;48.758;9.302;2022-11-11T02:47:11;4.30;99.90
670;DHT22;317;48.758;9.302;2022-11-11T02:49:38;5.10;99.90
670;DHT22;317;48.758;9.302;2022-11-11T02:52:05;4.90;99.90
670;DHT22;317;48.758;9.302;2022-11-11T02:54:31;4.90;99.90
670;DHT22;317;48.758;9.302;2022-11-11T02:56:58;5.00;99.90
670;DHT22;317;48.758;9.302;2022-11-11T02:59:36;4.80;99.90
670;DHT22;317;48.758;9.302;2022-11-11T03:02:05;4.60;99.90
670;DHT22;317;48.758;9.302;2022-11-11T03:04:32;4.70;99.90
670;DHT22;317;48.758;9.302;2022-11-11T03:06:59;4.70;99.90
670;DHT22;317;48.758;9.302;2022-11-11T03:09:26;4.20;99.90
670;DHT22;317;48.758;9.302;2022-11-11T03:11:53;4.10;99.90
670;DHT22;317;48.758;9.302;2022-11-11T03:14:19;3.80;99.90
670;DHT22;317;48.758;9.302;2022-11-11T03:16:48;4.30;99.90
670;DHT22;317;48.758;9.302;2022-11-11T03:19:40;4.70;99.90
670;DHT22;317;48.758;9.302;2022-11-11T03:22:07;4.50;99.90
670;DHT22;317;48.758;9.302;2022-11-11T03:24:33;4.30;99.90
670;DHT22;317;48.758;9.302;2022-11-11T03:27:17;4.60;99.90
670;DHT22;317;48.758;9.302;2022-11-11T03:29:44;4.20;99.90
670;DHT22;317;48.758;9.302;2022-11-11T03:32:12;4.20;99.90
670;DHT22;317;48.758;9.302;2022-11-11T03:34:39;4.30;99.90
670;DHT22;317;48.758;9.302;2022-11-11T03:37:07;4.60;99.90
670;DHT22;317;48.758;9.302;2022-11-11T03:39:52;4.50;99.90
670;DHT22;317;48.758;9.302;2022-11-11T03:42:19;4.40;99.90
670;DHT22;317;48.758;9.302;2022-11-11T03:44:46;4.70;99.90
670;DHT22;317;48.758;9.302;2022-11-11T03:47:14;4.50;99.90
670;DHT22;317;48.758;9.302;2022-11-11T03:49:41;4.60;99.90
670;DHT22;317;48.758;9.302;2022-11-11T03:52:10;4.60;99.90
670;DHT22;317;48.758;9.302;2022-11-11T03:54:37;4.70;99.90
670;DHT22;317;48.758;9.302;2022-11-11T03:57:04;4.60;99.90
670;DHT22;317;48.758;9.302;2022-11-11T03:59:48;4.50;99.90
670;DHT22;317;48.758;9.302;2022-11-11T04:02:16;4.60;99.90
670;DHT22;317;48.758;9.302;2022-11-11T04:05:00;4.70;99.90
670;DHT22;317;48.758;9.302;2022-11-11T04:07:44;4.80;99.90
670;DHT22;317;48.758;9.302;2022-11-11T04:10:29;4.60;99.90
670;DHT22;317;48.758;9.302;2022-11-11T04:12:57;4.80;99.90
670;DHT22;317;48.758;9.302;2022-11-11T04:15:42;5.00;99.90
670;DHT22;317;48.758;9.302;2022-11-11T04:18:27;4.70;99.90
670;DHT22;317;48.758;9.302;2022-11-11T04:21:13;4.80;99.90
670;DHT22;317;48.758;9.302;2022-11-11T04:23:57;4.50;99.90
670;DHT22;317;48.758;9.302;2022-11-11T04:26:24;4.50;99.90
670;DHT22;317;48.758;9.302;2022-11-11T04:28:50;4.40;99.90
670;DHT22;317;48.758;9.302;2022-11-11T04:31:33;4.60;99.90
670;DHT22;317;48.758;9.302;2022-11-11T04:34:02;4.30;99.90
670;DHT22;317;48.758;9.302;2022-11-11T04:36:27;4.60;99.90
670;DHT22;317;48.758;9.302;2022-11-11T04:38:54;4.40;99.90
670;DHT22;317;48.758;9.302;2022-11-11T04:41:38;4.50;99.90
670;DHT22;317;48.758;9.302;2022-11-11T04:44:05;4.70;99.90
670;DHT22;317;48.758;9.302;2022-11-11T04:46:49;4.60;99.90
670;DHT22;317;48.758;9.302;2022-11-11T04:49:18;4.60;99.90
670;DHT22;317;48.758;9.302;2022-11-11T04:51:44;4.00;99.90
670;DHT22;317;48.758;9.302;2022-11-11T04:54:29;4.50;99.90
670;DHT22;317;48.758;9.302;2022-11-11T04:57:15;4.50;99.90
670;DHT22;317;48.758;9.302;2022-11-11T04:59:41;4.30;99.90
670;DHT22;317;48.758;9.302;2022-11-11T05:02:08;3.80;99.90
670;DHT22;317;48.758;9.302;2022-11-11T05:04:53;4.30;99.90
670;DHT22;317;48.758;9.302;2022-11-11T05:07:19;4.40;99.90
670;DHT22;317;48.758;9.302;2022-11-11T05:10:04;4.30;99.90
670;DHT22;317;48.758;9.302;2022-11-11T05:12:31;4.60;99.90
670;DHT22;317;48.758;9.302;2022-11-11T05:14:58;4.80;99.90
670;DHT22;317;48.758;9.302;2022-11-11T05:17:42;4.60;99.90
670;DHT22;317;48.758;9.302;2022-11-11T05:20:30;4.60;99.90
670;DHT22;317;48.758;9.302;2022-11-11T05:23:14;4.70;99.90
670;DHT22;317;48.758;9.302;2022-11-11T05:25:41;4.60;99.90
670;DHT22;317;48.758;9.302;2022-11-11T05:28:07;4.50;99.90
670;DHT22;317;48.758;9.302;2022-11-11T05:30:33;4.50;99.90
670;DHT22;317;48.758;9.302;2022-11-11T05:33:01;4.80;99.90
670;DHT22;317;48.758;9.302;2022-11-11T05:35:30;4.70;99.90
670;DHT22;317;48.758;9.302;2022-11-11T05:38:01;4.70;99.90
670;DHT22;317;48.758;9.302;2022-11-11T05:40:46;4.40;99.90
670;DHT22;317;48.758;9.302;2022-11-11T05:43:14;4.60;99.90
670;DHT22;317;48.758;9.302;2022-11-11T05:45:40;4.50;99.90
670;DHT22;317;48.758;9.302;2022-11-11T05:48:07;4.70;99.90
670;DHT22;317;48.758;9.302;2022-11-11T05:50:36;4.70;99.90
670;DHT22;317;48.758;9.302;2022-11-11T05:53:05;4.20;99.90
670;DHT22;317;48.758;9.302;2022-11-11T05:55:32;4.60;99.90
670;DHT22;317;48.758;9.302;2022-11-11T05:57:59;4.40;99.90
670;DHT22;317;48.758;9.302;2022-11-11T06:00:26;4.60;99.90
670;DHT22;317;48.758;9.302;2022-11-11T06:02:52;4.70;99.90
670;DHT22;317;48.758;9.302;2022-11-11T06:05:19;4.60;99.90
670;DHT22;317;48.758;9.302;2022-11-11T06:07:48;4.50;99.90
670;DHT22;317;48.758;9.302;2022-11-11T06:10:19;4.50;99.90
670;DHT22;317;48.758;9.302;2022-11-11T06:12:58;4.60;99.90
670;DHT22;317;48.758;9.302;2022-11-11T06:15:29;4.40;99.90
670;DHT22;317;48.758;9.302;2022-11-11T06:17:56;4.10;99.90
670;DHT22;317;48.758;9.302;2022-11-11T06:20:23;4.30;99.90
670;DHT22;317;48.758;9.302;2022-11-11T06:22:51;4.40;99.90
670;DHT22;317;48.758;9.302;2022-11-11T06:25:28;4.60;99.90
670;DHT22;317;48.758;9.302;2022-11-11T06:28:13;4.60;99.90
670;DHT22;317;48.758;9.302;2022-11-11T06:30:41;4.50;99.90
670;DHT22;317;48.758;9.302;2022-11-11T06:33:08;4.60;99.90
670;DHT22;317;48.758;9.302;2022-11-11T06:35:35;4.20;99.90
670;DHT22;317;48.758;9.302;2022-11-11T06:38:06;4.00;99.90
670;DHT22;317;48.758;9.302;2022-11-11T06:40:32;3.70;99.90
670;DHT22;317;48.758;9.302;2022-11-11T06:42:59;4.50;99.90
670;DHT22;317;48.758;9.302;2022-11-11T06:45:27;4.40;99.90
670;DHT22;317;48.758;9.302;2022-11-11T06:47:55;4.60;99.90
670;DHT22;317;48.758;9.302;2022-11-11T06:50:22;4.30;99.90
670;DHT22;317;48.758;9.302;2022-11-11T06:52:48;4.10;99.90
670;DHT22;317;48.758;9.302;2022-11-11T06:55:17;4.10;99.90
670;DHT22;317;48.758;9.302;2022-11-11T06:57:43;4.20;99.90
670;DHT22;317;48.758;9.302;2022-11-11T07:00:11;4.20;99.90
670;DHT22;317;48.758;9.302;2022-11-11T07:02:38;4.10;99.90
670;DHT22;317;48.758;9.302;2022-11-11T07:05:05;4.00;99.90
670;DHT22;317;48.758;9.302;2022-11-11T07:07:32;4.20;99.90
670;DHT22;317;48.758;9.302;2022-11-11T07:09:59;4.20;99.90
670;DHT22;317;48.758;9.302;2022-11-11T07:12:28;4.10;99.90
670;DHT22;317;48.758;9.302;2022-11-11T07:14:54;4.10;99.90
670;DHT22;317;48.758;9.302;2022-11-11T07:17:21;4.20;99.90
670;DHT22;317;48.758;9.302;2022-11-11T07:19:48;4.10;99.90
670;DHT22;317;48.758;9.302;2022-11-11T07:22:16;4.10;99.90
670;DHT22;317;48.758;9.302;2022-11-11T07:24:43;4.30;99.90
670;DHT22;317;48.758;9.302;2022-11-11T07:27:10;4.50;99.90
670;DHT22;317;48.758;9.302;2022-11-11T07:29:38;4.30;99.90
670;DHT22;317;48.758;9.302;2022-11-11T07:32:05;4.80;99.90
670;DHT22;317;48.758;9.302;2022-11-11T07:34:32;5.00;99.90
670;DHT22;317;48.758;9.302;2022-11-11T07:36:59;5.10;99.90
670;DHT22;317;48.758;9.302;2022-11-11T07:39:25;5.00;99.90
670;DHT22;317;48.758;9.302;2022-11-11T07:41:52;4.70;99.90
670;DHT22;317;48.758;9.302;2022-11-11T07:44:19;4.80;99.90
670;DHT22;317;48.758;9.302;2022-11-11T07:46:47;4.80;99.90
670;DHT22;317;48.758;9.302;2022-11-11T07:49:14;4.70;99.90
670;DHT22;317;48.758;9.302;2022-11-11T07:51:40;5.00;99.90
670;DHT22;317;48.758;9.302;2022-11-11T07:54:07;5.00;99.90
670;DHT22;317;48.758;9.302;2022-11-11T07:56:35;4.60;99.90
670;DHT22;317;48.758;9.302;2022-11-11T07:59:02;5.00;99.90
670;DHT22;317;48.758;9.302;2022-11-11T08:01:28;5.00;99.90
670;DHT22;317;48.758;9.302;2022-11-11T08:03:56;5.10;99.90
670;DHT22;317;48.758;9.302;2022-11-11T08:06:23;5.00;99.90
670;DHT22;317;48.758;9.302;2022-11-11T08:08:50;4.80;99.90
670;DHT22;317;48.758;9.302;2022-11-11T08:11:17;5.30;99.90
670;DHT22;317;48.758;9.302;2022-11-11T08:14:05;5.10;99.90
670;DHT22;317;48.758;9.302;2022-11-11T08:16:30;5.60;99.90
670;DHT22;317;48.758;9.302;2022-11-11T08:18:59;5.90;99.90
670;DHT22;317;48.758;9.302;2022-11-11T08:21:26;5.80;99.90
670;DHT22;317;48.758;9.302;2022-11-11T08:23:53;5.80;99.90
670;DHT22;317;48.758;9.302;2022-11-11T08:26:21;5.80;99.90
670;DHT22;317;48.758;9.302;2022-11-11T08:28:50;6.00;99.90
670;DHT22;317;48.758;9.302;2022-11-11T08:31:18;6.00;99.90
670;DHT22;317;48.758;9.302;2022-11-11T08:33:45;5.70;99.90
670;DHT22;317;48.758;9.302;2022-11-11T08:36:13;5.90;99.90
670;DHT22;317;48.758;9.302;2022-11-11T08:38:40;6.10;99.90
670;DHT22;317;48.758;9.302;2022-11-11T08:41:06;5.90;99.90
670;DHT22;317;48.758;9.302;2022-11-11T08:43:33;6.20;99.90
670;DHT22;317;48.758;9.302;2022-11-11T08:46:01;5.70;99.90
670;DHT22;317;48.758;9.302;2022-11-11T08:48:29;6.10;99.90
670;DHT22;317;48.758;9.302;2022-11-11T08:50:56;6.20;99.90
670;DHT22;317;48.758;9.302;2022-11-11T08:53:25;6.40;99.90
670;DHT22;317;48.758;9.302;2022-11-11T08:55:52;6.80;99.90
670;DHT22;317;48.758;9.302;2022-11-11T08:58:19;7.00;99.90
670;DHT22;317;48.758;9.302;2022-11-11T09:00:46;6.50;99.90
670;DHT22;317;48.758;9.302;2022-11-11T09:03:13;6.60;99.90
670;DHT22;317;48.758;9.302;2022-11-11T09:05:40;7.20;99.90
670;DHT22;317;48.758;9.302;2022-11-11T09:08:08;6.90;99.90
670;DHT22;317;48.758;9.302;2022-11-11T09:10:37;7.70;99.90
670;DHT22;317;48.758;9.302;2022-11-11T09:13:05;7.90;99.90
670;DHT22;317;48.758;9.302;2022-11-11T09:15:32;8.40;99.90
670;DHT22;317;48.758;9.302;2022-11-11T09:17:59;8.40;99.90
670;DHT22;317;48.758;9.302;2022-11-11T09:20:26;9.40;99.90
670;DHT22;317;48.758;9.302;2022-11-11T09:22:53;9.60;99.90
670;DHT22;317;48.758;9.302;2022-11-11T09:25:20;10.30;99.90
670;DHT22;317;48.758;9.302;2022-11-11T09:27:54;10.40;99.90
670;DHT22;317;48.758;9.302;2022-11-11T09:30:22;9.50;99.90
670;DHT22;317;48.758;9.302;2022-11-11T09:32:49;10.00;99.90
670;DHT22;317;48.758;9.302;2022-11-11T09:35:16;10.80;99.90
670;DHT22;317;48.758;9.302;2022-11-11T09:37:52;10.60;99.90
670;DHT22;317;48.758;9.302;2022-11-11T09:40:21;10.70;99.90
670;DHT22;317;48.758;9.302;2022-11-11T09:42:58;11.60;99.90
670;DHT22;317;48.758;9.302;2022-11-11T09:45:33;11.80;99.90
670;DHT22;317;48.758;9.302;2022-11-11T09:48:08;11.80;72.10
670;DHT22;317;48.758;9.302;2022-11-11T09:50:39;11.80;99.90
670;DHT22;317;48.758;9.302;2022-11-11T09:53:12;11.10;39.70
670;DHT22;317;48.758;9.302;2022-11-11T09:55:46;11.20;68.40
670;DHT22;317;48.758;9.302;2022-11-11T09:58:18;11.90;10.60
670;DHT22;317;48.758;9.302;2022-11-11T10:00:50;12.70;1.00
670;DHT22;317;48.758;9.302;2022-11-11T10:03:19;12.30;1.00
670;DHT22;317;48.758;9.302;2022-11-11T10:05:51;12.00;60.80
670;DHT22;317;48.758;9.302;2022-11-11T10:08:24;12.60;1.00
670;DHT22;317;48.758;9.302;2022-11-11T10:10:53;13.10;1.00
670;DHT22;317;48.758;9.302;2022-11-11T10:13:27;13.60;1.00
670;DHT22;317;48.758;9.302;2022-11-11T10:15:59;13.50;1.00
670;DHT22;317;48.758;9.302;2022-11-11T10:18:57;12.80;55.00
670;DHT22;317;48.758;9.302;2022-11-11T10:21:33;12.90;1.00
670;DHT22;317;48.758;9.302;2022-11-11T10:24:06;13.70;1.00
670;DHT22;317;48.758;9.302;2022-11-11T10:26:39;12.90;1.00
670;DHT22;317;48.758;9.302;2022-11-11T10:29:12;13.20;1.00
670;DHT22;317;48.758;9.302;2022-11-11T10:31:40;13.90;1.00
670;DHT22;317;48.758;9.302;2022-11-11T10:34:10;13.60;1.00
670;DHT22;317;48.758;9.302;2022-11-11T10:36:41;14.50;99.90
670;DHT22;317;48.758;9.302;2022-11-11T10:39:12;15.50;1.00
670;DHT22;317;48.758;9.302;2022-11-11T10:41:43;15.40;1.00
670;DHT22;317;48.758;9.302;2022-11-11T10:44:25;16.90;99.90
670;DHT22;317;48.758;9.302;2022-11-11T10:46:58;17.30;1.00
670;DHT22;317;48.758;9.302;2022-11-11T10:49:31;18.40;1.00
670;DHT22;317;48.758;9.302;2022-11-11T10:52:03;18.10;99.90
670;DHT22;317;48.758;9.302;2022-11-11T10:54:35;18.20;99.90
670;DHT22;317;48.758;9.302;2022-11-11T10:57:08;17.80;1.00
670;DHT22;317;48.758;9.302;2022-11-11T10:59:43;16.70;1.00
670;DHT22;317;48.758;9.302;2022-11-11T11:02:18;17.00;99.90
670;DHT22;317;48.758;9.302;2022-11-11T11:04:49;16.40;1.00
670;DHT22;317;48.758;9.302;2022-11-11T11:07:21;16.90;17.00
670;DHT22;317;48.758;9.302;2022-11-11T11:09:54;16.40;1.00
670;DHT22;317;48.758;9.302;2022-11-11T11:12:27;17.40;99.90
670;DHT22;317;48.758;9.302;2022-11-11T11:15:01;17.60;99.90
670;DHT22;317;48.758;9.302;2022-11-11T11:17:34;17.10;1.00
670;DHT22;317;48.758;9.302;2022-11-11T11:20:10;16.70;1.00
670;DHT22;317;48.758;9.302;2022-11-11T11:22:48;15.50;1.00
670;DHT22;317;48.758;9.302;2022-11-11T11:25:16;16.60;1.00
670;DHT22;317;48.758;9.302;2022-11-11T11:27:44;16.90;99.90
670;DHT22;317;48.758;9.302;2022-11-11T11:30:15;16.50;1.00
670;DHT22;317;48.758;9.302;2022-11-11T11:32:55;17.50;77.00
670;DHT22;317;48.758;9.302;2022-11-11T11:35:34;17.60;1.00
670;DHT22;317;48.758;9.302;2022-11-11T11:38:02;17.50;1.00
670;DHT22;317;48.758;9.302;2022-11-11T11:40:45;16.50;56.80
670;DHT22;317;48.758;9.302;2022-11-11T11:43:29;16.40;99.90
670;DHT22;317;48.758;9.302;2022-11-11T11:46:00;17.70;1.00
670;DHT22;317;48.758;9.302;2022-11-11T11:48:38;18.10;99.90
670;DHT22;317;48.758;9.302;2022-11-11T11:51:16;18.60;99.90
670;DHT22;317;48.758;9.302;2022-11-11T11:53:54;18.30;99.90
670;DHT22;317;48.758;9.302;2022-11-11T11:56:31;18.90;99.90
670;DHT22;317;48.758;9.302;2022-11-11T11:59:05;19.40;1.00
670;DHT22;317;48.758;9.302;2022-11-11T12:01:43;20.10;1.00
670;DHT22;317;48.758;9.302;2022-11-11T12:04:31;18.30;1.00
670;DHT22;317;48.758;9.302;2022-11-11T12:07:08;18.50;1.00
670;DHT22;317;48.758;9.302;2022-11-11T12:09:49;18.60;1.00
670;DHT22;317;48.758;9.302;2022-11-11T12:12:28;19.50;1.00
670;DHT22;317;48.758;9.302;2022-11-11T12:15:03;20.90;1.00
670;DHT22;317;48.758;9.302;2022-11-11T12:17:45;19.90;99.90
670;DHT22;317;48.758;9.302;2022-11-11T12:20:15;21.80;99.90
670;DHT22;317;48.758;9.302;2022-11-11T12:23:02;23.80;1.00
670;DHT22;317;48.758;9.302;2022-11-11T12:25:46;23.90;1.00
670;DHT22;317;48.758;9.302;2022-11-11T12:28:25;21.60;1.00
670;DHT22;317;48.758;9.302;2022-11-11T12:31:05;19.40;1.00
670;DHT22;317;48.758;9.302;2022-11-11T12:33:56;18.80;99.90
670;DHT22;317;48.758;9.302;2022-11-11T12:36:31;18.90;99.90
670;DHT22;317;48.758;9.302;2022-11-11T12:39:05;17.70;99.90
670;DHT22;317;48.758;9.302;2022-11-11T12:41:46;18.00;58.00
670;DHT22;317;48.758;9.302;2022-11-11T12:44:16;18.80;1.00
670;DHT22;317;48.758;9.302;2022-11-11T12:46:52;18.40;99.90
670;DHT22;317;48.758;9.302;2022-11-11T12:49:38;19.20;1.00
670;DHT22;317;48.758;9.302;2022-11-11T12:52:18;19.10;1.00
670;DHT22;317;48.758;9.302;2022-11-11T12:54:58;19.80;1.00
670;DHT22;317;48.758;9.302;2022-11-11T12:57:33;20.10;1.00
670;DHT22;317;48.758;9.302;2022-11-11T13:00:07;19.50;1.00
670;DHT22;317;48.758;9.302;2022-11-11T13:02:58;19.20;1.00
670;DHT22;317;48.758;9.302;2022-11-11T13:05:31;18.60;1.00
670;DHT22;317;48.758;9.302;2022-11-11T13:11:14;17.80;99.90
670;DHT22;317;48.758;9.302;2022-11-11T13:13:55;17.60;99.90
670;DHT22;317;48.758;9.302;2022-11-11T13:16:25;17.30;1.00
670;DHT22;317;48.758;9.302;2022-11-11T13:18:55;17.90;1.00
670;DHT22;317;48.758;9.302;2022-11-11T13:21:31;18.70;5.60
670;DHT22;317;48.758;9.302;2022-11-11T13:23:59;19.20;1.00
670;DHT22;317;48.758;9.302;2022-11-11T13:26:29;19.50;1.00
670;DHT22;317;48.758;9.302;2022-11-11T13:29:13;20.20;1.00
670;DHT22;317;48.758;9.302;2022-11-11T13:31:44;21.30;1.00
670;DHT22;317;48.758;9.302;2022-11-11T13:34:14;21.30;1.00
670;DHT22;317;48.758;9.302;2022-11-11T13:36:45;20.60;1.00
670;DHT22;317;48.758;9.302;2022-11-11T13:39:24;19.40;1.00
670;DHT22;317;48.758;9.302;2022-11-11T13:41:54;18.80;3.50
670;DHT22;317;48.758;9.302;2022-11-11T13:44:24;18.40;99.90
670;DHT22;317;48.758;9.302;2022-11-11T13:47:00;18.50;99.90
670;DHT22;317;48.758;9.302;2022-11-11T13:49:31;18.90;55.90
670;DHT22;317;48.758;9.302;2022-11-11T13:52:01;19.00;90.10
670;DHT22;317;48.758;9.302;2022-11-11T13:54:33;19.20;1.00
670;DHT22;317;48.758;9.302;2022-11-11T13:57:04;19.60;1.00
670;DHT22;317;48.758;9.302;2022-11-11T13:59:34;19.50;1.00
670;DHT22;317;48.758;9.302;2022-11-11T14:02:13;19.20;1.00
670;DHT22;317;48.758;9.302;2022-11-11T14:05:20;19.00;36.40
670;DHT22;317;48.758;9.302;2022-11-11T14:07:51;19.40;99.90
670;DHT22;317;48.758;9.302;2022-11-11T14:10:49;19.30;1.00
670;DHT22;317;48.758;9.302;2022-11-11T14:13:36;18.80;99.90
670;DHT22;317;48.758;9.302;2022-11-11T14:16:07;19.00;2.10
670;DHT22;317;48.758;9.302;2022-11-11T14:18:43;19.10;1.00
670;DHT22;317;48.758;9.302;2022-11-11T14:21:10;18.70;2.60
670;DHT22;317;48.758;9.302;2022-11-11T14:23:58;19.30;22.80
670;DHT22;317;48.758;9.302;2022-11-11T14:26:27;18.90;99.90
670;DHT22;317;48.758;9.302;2022-11-11T14:28:57;19.30;99.90
670;DHT22;317;48.758;9.302;2022-11-11T14:32:01;19.30;76.60
670;DHT22;317;48.758;9.302;2022-11-11T14:34:57;19.30;99.90
670;DHT22;317;48.758;9.302;2022-11-11T14:37:36;19.30;38.50
670;DHT22;317;48.758;9.302;2022-11-11T14:40:10;19.30;56.90
670;DHT22;317;48.758;9.302;2022-11-11T14:42:45;19.00;94.90
670;DHT22;317;48.758;9.302;2022-11-11T14:48:52;19.00;99.90
670;DHT22;317;48.758;9.302;2022-11-11T14:51:46;18.70;99.90
670;DHT22;317;48.758;9.302;2022-11-11T14:57:23;17.60;43.50
670;DHT22;317;48.758;9.302;2022-11-11T14:59:52;17.40;99.90
670;DHT22;317;48.758;9.302;2022-11-11T15:02:30;17.20;38.60
670;DHT22;317;48.758;9.302;2022-11-11T15:04:59;17.20;1.00
670;DHT22;317;48.758;9.302;2022-11-11T15:07:51;16.80;99.90
670;DHT22;317;48.758;9.302;2022-11-11T15:13:54;16.20;97.20
670;DHT22;317;48.758;9.302;2022-11-11T15:16:33;15.90;99.90
670;DHT22;317;48.758;9.302;2022-11-11T15:19:11;15.40;1.00
670;DHT22;317;48.758;9.302;2022-11-11T15:21:46;14.90;1.00
670;DHT22;317;48.758;9.302;2022-11-11T15:24:22;14.60;16.30
670;DHT22;317;48.758;9.302;2022-11-11T15:26:56;14.30;80.90
670;DHT22;317;48.758;9.302;2022-11-11T15:29:58;14.00;99.90
670;DHT22;317;48.758;9.302;2022-11-11T15:32:47;13.80;99.90
670;DHT22;317;48.758;9.302;2022-11-11T15:35:33;13.50;99.90
670;DHT22;317;48.758;9.302;2022-11-11T15:38:03;13.20;99.90
670;DHT22;317;48.758;9.302;2022-11-11T15:40:41;13.00;99.90
670;DHT22;317;48.758;9.302;2022-11-11T15:43:18;12.70;99.90
670;DHT22;317;48.758;9.302;2022-11-11T15:45:50;12.60;99.90
670;DHT22;317;48.758;9.302;2022-11-11T15:48:20;12.20;99.90
670;DHT22;317;48.758;9.302;2022-11-11T15:50:49;12.30;99.90
670;DHT22;317;48.758;9.302;2022-11-11T15:53:21;12.10;99.90
670;DHT22;317;48.758;9.302;2022-11-11T15:55:53;11.70;99.90
670;DHT22;317;48.758;9.302;2022-11-11T15:58:30;11.80;99.90
670;DHT22;317;48.758;9.302;2022-11-11T16:01:00;11.40;99.90
670;DHT22;317;48.758;9.302;2022-11-11T16:03:31;11.40;99.90
670;DHT22;317;48.758;9.302;2022-11-11T16:06:03;11.30;99.90
670;DHT22;317;48.758;9.302;2022-11-11T16:08:31;11.00;99.90
670;DHT22;317;48.758;9.302;2022-11-11T16:10:59;10.90;99.90
670;DHT22;317;48.758;9.302;2022-11-11T16:13:29;10.80;99.90
670;DHT22;317;48.758;9.302;2022-11-11T16:16:02;10.50;99.90
670;DHT22;317;48.758;9.302;2022-11-11T16:18:36;10.20;99.90
670;DHT22;317;48.758;9.302;2022-11-11T16:21:06;10.50;99.90
670;DHT22;317;48.758;9.302;2022-11-11T16:23:35;10.40;99.90
670;DHT22;317;48.758;9.302;2022-11-11T16:26:03;10.30;99.90
670;DHT22;317;48.758;9.302;2022-11-11T16:28:37;10.00;99.90
670;DHT22;317;48.758;9.302;2022-11-11T16:31:30;9.60;99.90
670;DHT22;317;48.758;9.302;2022-11-11T16:37:05;10.10;99.90
670;DHT22;317;48.758;9.302;2022-11-11T16:39:33;9.60;99.90
670;DHT22;317;48.758;9.302;2022-11-11T16:42:01;9.30;99.90
670;DHT22;317;48.758;9.302;2022-11-11T16:44:32;9.30;99.90
670;DHT22;317;48.758;9.302;2022-11-11T16:47:03;9.70;99.90
670;DHT22;317;48.758;9.302;2022-11-11T16:49:32;9.50;99.90
670;DHT22;317;48.758;9.302;2022-11-11T16:52:08;9.50;99.90
670;DHT22;317;48.758;9.302;2022-11-11T16:54:41;9.40;99.90
670;DHT22;317;48.758;9.302;2022-11-11T16:57:16;9.40;99.90
670;DHT22;317;48.758;9.302;2022-11-11T16:59:45;9.30;99.90
670;DHT22;317;48.758;9.302;2022-11-11T17:02:19;9.10;99.90
670;DHT22;317;48.758;9.302;2022-11-11T17:04:47;8.70;99.90
670;DHT22;317;48.758;9.302;2022-11-11T17:07:28;8.90;99.90
670;DHT22;317;48.758;9.302;2022-11-11T17:10:10;8.80;99.90
670;DHT22;317;48.758;9.302;2022-11-11T17:12:37;9.20;99.90
670;DHT22;317;48.758;9.302;2022-11-11T17:15:06;9.00;99.90
670;DHT22;317;48.758;9.302;2022-11-11T17:17:36;9.30;99.90
670;DHT22;317;48.758;9.302;2022-11-11T17:20:07;9.10;99.90
670;DHT22;317;48.758;9.302;2022-11-11T17:22:34;9.00;99.90
670;DHT22;317;48.758;9.302;2022-11-11T17:25:03;8.70;99.90
670;DHT22;317;48.758;9.302;2022-11-11T17:27:30;8.90;99.90
670;DHT22;317;48.758;9.302;2022-11-11T17:29:57;8.70;99.90
670;DHT22;317;48.758;9.302;2022-11-11T17:32:23;8.50;99.90
670;DHT22;317;48.758;9.302;2022-11-11T17:34:51;8.70;99.90
670;DHT22;317;48.758;9.302;2022-11-11T17:37:18;8.40;99.90
670;DHT22;317;48.758;9.302;2022-11-11T17:39:46;8.20;99.90